sensor_id;sensor_type;location;lat;lon;timestamp;pressure;altitude;pressure_sealevel;temperature;humidity
73267;BME280;61495;53.400;7.608;2023-12-20T00:01:00;101056.72;;;5.10;100.00
73267;BME280;61495;53.400;7.608;2023-12-20T00:03:26;101043.59;;;5.09;100.00
73267;BME280;61495;53.400;7.608;2023-12-20T00:05:51;101044.63;;;5.08;100.00
73267;BME280;61495;53.400;7.608;2023-12-20T00:08:16;101050.91;;;5.07;100.00
73267;BME280;61495;53.400;7.608;2023-12-20T00:10:43;101052.91;;;5.04;100.00
73267;BME280;61495;53.400;7.608;2023-12-20T00:13:09;101048.72;;;5.02;100.00
73267;BME280;61495;53.400;7.608;2023-12-20T00:15:35;101039.28;;;4.99;100.00
73267;BME280;61495;53.400;7.608;2023-12-20T00:18:00;101037.66;;;4.98;100.00
73267;BME280;61495;53.400;7.608;2023-12-20T00:20:26;101031.00;;;4.94;100.00
73267;BME280;61495;53.400;7.608;2023-12-20T00:22:52;101014.75;;;4.89;100.00
73267;BME280;61495;53.400;7.608;2023-12-20T00:25:17;101022.38;;;4.92;100.00
73267;BME280;61495;53.400;7.608;2023-12-20T00:27:43;101019.03;;;4.90;100.00
73267;BME280;61495;53.400;7.608;2023-12-20T00:30:09;101007.75;;;4.88;100.00
73267;BME280;61495;53.400;7.608;2023-12-20T00:32:35;101014.91;;;4.88;100.00
73267;BME280;61495;53.400;7.608;2023-12-20T00:35:01;101010.41;;;4.88;100.00
73267;BME280;61495;53.400;7.608;2023-12-20T00:37:26;101012.41;;;4.86;100.00
73267;BME280;61495;53.400;7.608;2023-12-20T00:39:52;101015.72;;;4.88;100.00
73267;BME280;61495;53.400;7.608;2023-12-20T00:42:17;101010.75;;;4.85;100.00
73267;BME280;61495;53.400;7.608;2023-12-20T00:44:42;101006.44;;;4.84;100.00
73267;BME280;61495;53.400;7.608;2023-12-20T00:47:08;101008.75;;;4.79;100.00
73267;BME280;61495;53.400;7.608;2023-12-20T00:49:33;101007.78;;;4.80;100.00
73267;BME280;61495;53.400;7.608;2023-12-20T00:51:58;101004.63;;;4.77;100.00
73267;BME280;61495;53.400;7.608;2023-12-20T00:54:24;101003.13;;;4.74;100.00
73267;BME280;61495;53.400;7.608;2023-12-20T00:56:49;100993.00;;;4.70;100.00
73267;BME280;61495;53.400;7.608;2023-12-20T00:59:16;100994.81;;;4.69;100.00
73267;BME280;61495;53.400;7.608;2023-12-20T01:01:41;100990.50;;;4.68;100.00
73267;BME280;61495;53.400;7.608;2023-12-20T01:04:07;100989.50;;;4.69;100.00
73267;BME280;61495;53.400;7.608;2023-12-20T01:06:32;100992.34;;;4.68;100.00
73267;BME280;61495;53.400;7.608;2023-12-20T01:08:58;100977.72;;;4.64;100.00
73267;BME280;61495;53.400;7.608;2023-12-20T01:11:23;100990.50;;;4.68;100.00
73267;BME280;61495;53.400;7.608;2023-12-20T01:13:48;100989.03;;;4.66;100.00
73267;BME280;61495;53.400;7.608;2023-12-20T01:16:14;100987.69;;;4.70;100.00
73267;BME280;61495;53.400;7.608;2023-12-20T01:18:39;100971.94;;;4.68;100.00
73267;BME280;61495;53.400;7.608;2023-12-20T01:21:04;100980.72;;;4.69;100.00
73267;BME280;61495;53.400;7.608;2023-12-20T01:23:30;100977.56;;;4.65;100.00
73267;BME280;61495;53.400;7.608;2023-12-20T01:25:55;100973.09;;;4.66;100.00
73267;BME280;61495;53.400;7.608;2023-12-20T01:28:21;100975.56;;;4.67;100.00
73267;BME280;61495;53.400;7.608;2023-12-20T01:30:46;100980.56;;;4.70;100.00
73267;BME280;61495;53.400;7.608;2023-12-20T01:33:12;100980.22;;;4.73;100.00
73267;BME280;61495;53.400;7.608;2023-12-20T01:35:37;100979.38;;;4.73;100.00
73267;BME280;61495;53.400;7.608;2023-12-20T01:38:03;100972.25;;;4.73;100.00
73267;BME280;61495;53.400;7.608;2023-12-20T01:40:28;100966.63;;;4.76;100.00
73267;BME280;61495;53.400;7.608;2023-12-20T01:43:07;100973.75;;;4.76;100.00
73267;BME280;61495;53.400;7.608;2023-12-20T01:45:33;100977.91;;;4.78;100.00
73267;BME280;61495;53.400;7.608;2023-12-20T01:47:59;100975.41;;;4.77;100.00
73267;BME280;61495;53.400;7.608;2023-12-20T01:50:25;100974.91;;;4.81;100.00
73267;BME280;61495;53.400;7.608;2023-12-20T01:52:52;100973.59;;;4.85;100.00
73267;BME280;61495;53.400;7.608;2023-12-20T01:55:21;100974.44;;;4.86;100.00
73267;BME280;61495;53.400;7.608;2023-12-20T01:57:47;100975.06;;;4.88;100.00
73267;BME280;61495;53.400;7.608;2023-12-20T02:00:15;100965.94;;;4.90;100.00
73267;BME280;61495;53.400;7.608;2023-12-20T02:02:41;100966.63;;;4.92;100.00
73267;BME280;61495;53.400;7.608;2023-12-20T02:05:07;100961.13;;;4.94;100.00
73267;BME280;61495;53.400;7.608;2023-12-20T02:07:33;100946.88;;;4.95;100.00
73267;BME280;61495;53.400;7.608;2023-12-20T02:10:00;100942.41;;;4.95;100.00
73267;BME280;61495;53.400;7.608;2023-12-20T02:12:26;100937.56;;;4.99;100.00
73267;BME280;61495;53.400;7.608;2023-12-20T02:14:51;100937.41;;;5.00;100.00
73267;BME280;61495;53.400;7.608;2023-12-20T02:17:16;100933.09;;;4.99;100.00
73267;BME280;61495;53.400;7.608;2023-12-20T02:19:43;100934.91;;;4.99;100.00
73267;BME280;61495;53.400;7.608;2023-12-20T02:22:11;100931.78;;;4.95;100.00
73267;BME280;61495;53.400;7.608;2023-12-20T02:24:37;100920.84;;;4.98;100.00
73267;BME280;61495;53.400;7.608;2023-12-20T02:27:05;100936.56;;;5.00;100.00
73267;BME280;61495;53.400;7.608;2023-12-20T02:29:35;100929.78;;;4.97;100.00
73267;BME280;61495;53.400;7.608;2023-12-20T02:32:13;100923.31;;;5.00;100.00
73267;BME280;61495;53.400;7.608;2023-12-20T02:34:48;100905.06;;;4.97;100.00
73267;BME280;61495;53.400;7.608;2023-12-20T02:37:23;100910.22;;;4.98;100.00
73267;BME280;61495;53.400;7.608;2023-12-20T02:40:14;100911.84;;;4.99;100.00
73267;BME280;61495;53.400;7.608;2023-12-20T02:42:49;100895.09;;;4.99;100.00
73267;BME280;61495;53.400;7.608;2023-12-20T02:45:40;100895.94;;;4.99;100.00
73267;BME280;61495;53.400;7.608;2023-12-20T02:48:07;100895.09;;;4.99;100.00
73267;BME280;61495;53.400;7.608;2023-12-20T02:50:32;100896.94;;;4.98;100.00
73267;BME280;61495;53.400;7.608;2023-12-20T02:52:57;100891.78;;;4.97;100.00
73267;BME280;61495;53.400;7.608;2023-12-20T02:55:23;100891.97;;;4.95;100.00
73267;BME280;61495;53.400;7.608;2023-12-20T02:57:48;100895.28;;;4.97;100.00
73267;BME280;61495;53.400;7.608;2023-12-20T03:00:14;100901.22;;;4.99;100.00
73267;BME280;61495;53.400;7.608;2023-12-20T03:02:39;100905.72;;;4.99;100.00
73267;BME280;61495;53.400;7.608;2023-12-20T03:05:05;100891.63;;;4.98;100.00
73267;BME280;61495;53.400;7.608;2023-12-20T03:07:30;100895.09;;;4.99;100.00
73267;BME280;61495;53.400;7.608;2023-12-20T03:09:56;100892.28;;;5.00;100.00
73267;BME280;61495;53.400;7.608;2023-12-20T03:12:21;100897.25;;;5.03;100.00
73267;BME280;61495;53.400;7.608;2023-12-20T03:14:48;100886.78;;;5.02;100.00
73267;BME280;61495;53.400;7.608;2023-12-20T03:17:13;100883.97;;;5.03;100.00
73267;BME280;61495;53.400;7.608;2023-12-20T03:19:38;100880.00;;;4.99;100.00
73267;BME280;61495;53.400;7.608;2023-12-20T03:22:03;100888.31;;;5.04;100.00
73267;BME280;61495;53.400;7.608;2023-12-20T03:24:29;100883.78;;;5.05;100.00
73267;BME280;61495;53.400;7.608;2023-12-20T03:26:54;100870.72;;;5.03;100.00
73267;BME280;61495;53.400;7.608;2023-12-20T03:29:19;100870.84;;;5.02;100.00
73267;BME280;61495;53.400;7.608;2023-12-20T03:31:45;100868.69;;;5.05;100.00
73267;BME280;61495;53.400;7.608;2023-12-20T03:34:11;100860.09;;;5.03;100.00
73267;BME280;61495;53.400;7.608;2023-12-20T03:36:36;100864.56;;;5.03;100.00
73267;BME280;61495;53.400;7.608;2023-12-20T03:39:01;100864.22;;;5.06;100.00
73267;BME280;61495;53.400;7.608;2023-12-20T03:41:27;100866.03;;;5.05;100.00
73267;BME280;61495;53.400;7.608;2023-12-20T03:43:52;100859.75;;;5.07;100.00
73267;BME280;61495;53.400;7.608;2023-12-20T03:46:17;100849.13;;;5.07;100.00
73267;BME280;61495;53.400;7.608;2023-12-20T03:48:43;100842.00;;;5.07;100.00
73267;BME280;61495;53.400;7.608;2023-12-20T03:51:08;100834.88;;;5.08;100.00
73267;BME280;61495;53.400;7.608;2023-12-20T03:53:33;100835.66;;;5.08;100.00
73267;BME280;61495;53.400;7.608;2023-12-20T03:55:59;100834.88;;;5.08;100.00
73267;BME280;61495;53.400;7.608;2023-12-20T03:58:24;100835.84;;;5.07;100.00
73267;BME280;61495;53.400;7.608;2023-12-20T04:00:49;100831.53;;;5.05;100.00
73267;BME280;61495;53.400;7.608;2023-12-20T04:03:15;100838.50;;;5.07;100.00
73267;BME280;61495;53.400;7.608;2023-12-20T04:05:41;100834.38;;;5.04;100.00
73267;BME280;61495;53.400;7.608;2023-12-20T04:08:07;100834.38;;;5.04;100.00
73267;BME280;61495;53.400;7.608;2023-12-20T04:10:32;100834.53;;;5.02;100.00
73267;BME280;61495;53.400;7.608;2023-12-20T04:12:57;100833.53;;;5.03;100.00
73267;BME280;61495;53.400;7.608;2023-12-20T04:15:23;100835.53;;;5.01;100.00
73267;BME280;61495;53.400;7.608;2023-12-20T04:17:48;100838.19;;;5.01;100.00
73267;BME280;61495;53.400;7.608;2023-12-20T04:20:13;100843.50;;;5.01;100.00
73267;BME280;61495;53.400;7.608;2023-12-20T04:22:39;100830.69;;;5.05;100.00
73267;BME280;61495;53.400;7.608;2023-12-20T04:25:04;100835.00;;;5.06;100.00
73267;BME280;61495;53.400;7.608;2023-12-20T04:27:30;100830.69;;;5.05;100.00
73267;BME280;61495;53.400;7.608;2023-12-20T04:29:55;100832.22;;;5.08;100.00
73267;BME280;61495;53.400;7.608;2023-12-20T04:32:21;100843.47;;;5.10;100.00
73267;BME280;61495;53.400;7.608;2023-12-20T04:34:46;100834.53;;;5.11;100.00
73267;BME280;61495;53.400;7.608;2023-12-20T04:37:11;100832.84;;;5.10;100.00
73267;BME280;61495;53.400;7.608;2023-12-20T04:39:37;100823.06;;;5.10;100.00
73267;BME280;61495;53.400;7.608;2023-12-20T04:42:03;100833.84;;;5.09;100.00
73267;BME280;61495;53.400;7.608;2023-12-20T04:44:28;100818.59;;;5.11;100.00
73267;BME280;61495;53.400;7.608;2023-12-20T04:46:53;100823.91;;;5.11;100.00
73267;BME280;61495;53.400;7.608;2023-12-20T04:49:19;100819.56;;;5.10;100.00
73267;BME280;61495;53.400;7.608;2023-12-20T04:51:44;100817.56;;;5.12;100.00
73267;BME280;61495;53.400;7.608;2023-12-20T04:54:09;100821.25;;;5.11;100.00
73267;BME280;61495;53.400;7.608;2023-12-20T04:56:35;100828.19;;;5.12;100.00
73267;BME280;61495;53.400;7.608;2023-12-20T04:59:01;100810.44;;;5.12;100.00
73267;BME280;61495;53.400;7.608;2023-12-20T05:01:27;100818.06;;;5.15;100.00
73267;BME280;61495;53.400;7.608;2023-12-20T05:03:52;100817.91;;;5.17;100.00
73267;BME280;61495;53.400;7.608;2023-12-20T05:06:18;100820.38;;;5.18;100.00
73267;BME280;61495;53.400;7.608;2023-12-20T05:08:43;100822.84;;;5.20;100.00
73267;BME280;61495;53.400;7.608;2023-12-20T05:11:09;100813.88;;;5.21;100.00
73267;BME280;61495;53.400;7.608;2023-12-20T05:13:34;100815.53;;;5.22;100.00
73267;BME280;61495;53.400;7.608;2023-12-20T05:15:59;100811.06;;;5.22;100.00
73267;BME280;61495;53.400;7.608;2023-12-20T05:18:25;100817.19;;;5.23;100.00
73267;BME280;61495;53.400;7.608;2023-12-20T05:20:51;100813.88;;;5.21;100.00
73267;BME280;61495;53.400;7.608;2023-12-20T05:23:16;100811.88;;;5.23;100.00
73267;BME280;61495;53.400;7.608;2023-12-20T05:25:42;100805.75;;;5.22;100.00
73267;BME280;61495;53.400;7.608;2023-12-20T05:28:07;100808.22;;;5.24;100.00
73267;BME280;61495;53.400;7.608;2023-12-20T05:30:33;100808.22;;;5.24;100.00
73267;BME280;61495;53.400;7.608;2023-12-20T05:32:58;100813.53;;;5.24;100.00
73267;BME280;61495;53.400;7.608;2023-12-20T05:35:23;100795.94;;;5.23;100.00
73267;BME280;61495;53.400;7.608;2023-12-20T05:37:49;100799.91;;;5.27;100.00
73267;BME280;61495;53.400;7.608;2023-12-20T05:40:15;100804.22;;;5.28;100.00
73267;BME280;61495;53.400;7.608;2023-12-20T05:42:40;100792.59;;;5.29;100.00
73267;BME280;61495;53.400;7.608;2023-12-20T05:45:06;100798.91;;;5.28;100.00
73267;BME280;61495;53.400;7.608;2023-12-20T05:47:33;100789.94;;;5.29;100.00
73267;BME280;61495;53.400;7.608;2023-12-20T05:49:58;100789.13;;;5.28;100.00
73267;BME280;61495;53.400;7.608;2023-12-20T05:52:24;100781.81;;;5.30;100.00
73267;BME280;61495;53.400;7.608;2023-12-20T05:54:49;100783.28;;;5.33;100.00
73267;BME280;61495;53.400;7.608;2023-12-20T05:57:14;100774.31;;;5.34;100.00
73267;BME280;61495;53.400;7.608;2023-12-20T05:59:40;100773.50;;;5.33;100.00
73267;BME280;61495;53.400;7.608;2023-12-20T06:02:05;100789.91;;;5.37;100.00
73267;BME280;61495;53.400;7.608;2023-12-20T06:04:31;100773.78;;;5.38;100.00
73267;BME280;61495;53.400;7.608;2023-12-20T06:06:57;100771.97;;;5.39;100.00
73267;BME280;61495;53.400;7.608;2023-12-20T06:09:22;100760.34;;;5.40;100.00
73267;BME280;61495;53.400;7.608;2023-12-20T06:11:47;100755.03;;;5.40;100.00
73267;BME280;61495;53.400;7.608;2023-12-20T06:14:13;100760.97;;;5.42;100.00
73267;BME280;61495;53.400;7.608;2023-12-20T06:16:38;100756.31;;;5.44;100.00
73267;BME280;61495;53.400;7.608;2023-12-20T06:19:03;100756.31;;;5.44;100.00
73267;BME280;61495;53.400;7.608;2023-12-20T06:21:29;100751.69;;;5.46;100.00
73267;BME280;61495;53.400;7.608;2023-12-20T06:23:54;100754.97;;;5.48;100.00
73267;BME280;61495;53.400;7.608;2023-12-20T06:26:20;100755.63;;;5.50;100.00
73267;BME280;61495;53.400;7.608;2023-12-20T06:28:45;100746.66;;;5.51;100.00
73267;BME280;61495;53.400;7.608;2023-12-20T06:31:11;100748.31;;;5.52;100.00
73267;BME280;61495;53.400;7.608;2023-12-20T06:33:38;100743.81;;;5.52;100.00
73267;BME280;61495;53.400;7.608;2023-12-20T06:36:05;100748.94;;;5.54;100.00
73267;BME280;61495;53.400;7.608;2023-12-20T06:38:31;100744.28;;;5.56;100.00
73267;BME280;61495;53.400;7.608;2023-12-20T06:40:56;100738.13;;;5.55;100.00
73267;BME280;61495;53.400;7.608;2023-12-20T06:43:23;100731.81;;;5.56;100.00
73267;BME280;61495;53.400;7.608;2023-12-20T06:45:49;100729.00;;;5.58;100.00
73267;BME280;61495;53.400;7.608;2023-12-20T06:48:14;100722.88;;;5.57;100.00
73267;BME280;61495;53.400;7.608;2023-12-20T06:50:39;100717.34;;;5.59;100.00
73267;BME280;61495;53.400;7.608;2023-12-20T06:53:05;100713.72;;;5.60;100.00
73267;BME280;61495;53.400;7.608;2023-12-20T06:55:33;100711.53;;;5.64;100.00
73267;BME280;61495;53.400;7.608;2023-12-20T06:57:58;100704.38;;;5.64;100.00
73267;BME280;61495;53.400;7.608;2023-12-20T07:00:23;100713.34;;;5.63;100.00
73267;BME280;61495;53.400;7.608;2023-12-20T07:02:49;100697.88;;;5.67;100.00
73267;BME280;61495;53.400;7.608;2023-12-20T07:05:18;100698.03;;;5.65;100.00
73267;BME280;61495;53.400;7.608;2023-12-20T07:07:45;100700.34;;;5.68;100.00
73267;BME280;61495;53.400;7.608;2023-12-20T07:10:11;100696.69;;;5.69;100.00
73267;BME280;61495;53.400;7.608;2023-12-20T07:12:37;100693.00;;;5.70;100.00
73267;BME280;61495;53.400;7.608;2023-12-20T07:15:02;100690.19;;;5.72;100.00
73267;BME280;61495;53.400;7.608;2023-12-20T07:17:28;100682.38;;;5.70;100.00
73267;BME280;61495;53.400;7.608;2023-12-20T07:19:53;100679.38;;;5.73;100.00
73267;BME280;61495;53.400;7.608;2023-12-20T07:22:18;100681.03;;;5.74;100.00
73267;BME280;61495;53.400;7.608;2023-12-20T07:24:43;100680.03;;;5.75;100.00
73267;BME280;61495;53.400;7.608;2023-12-20T07:27:09;100674.72;;;5.75;100.00
73267;BME280;61495;53.400;7.608;2023-12-20T07:29:34;100685.00;;;5.78;100.00
73267;BME280;61495;53.400;7.608;2023-12-20T07:32:00;100688.47;;;5.79;100.00
73267;BME280;61495;53.400;7.608;2023-12-20T07:34:25;100678.47;;;5.81;100.00
73267;BME280;61495;53.400;7.608;2023-12-20T07:36:50;100673.16;;;5.81;100.00
73267;BME280;61495;53.400;7.608;2023-12-20T07:39:16;100671.16;;;5.83;100.00
73267;BME280;61495;53.400;7.608;2023-12-20T07:41:41;100684.28;;;5.84;100.00
73267;BME280;61495;53.400;7.608;2023-12-20T07:44:06;100678.97;;;5.84;100.00
73267;BME280;61495;53.400;7.608;2023-12-20T07:46:32;100689.25;;;5.87;100.00
73267;BME280;61495;53.400;7.608;2023-12-20T07:48:58;100693.75;;;5.87;100.00
73267;BME280;61495;53.400;7.608;2023-12-20T07:51:23;100681.09;;;5.89;100.00
73267;BME280;61495;53.400;7.608;2023-12-20T07:53:48;100672.94;;;5.90;100.00
73267;BME280;61495;53.400;7.608;2023-12-20T07:56:18;100671.94;;;5.91;100.00
73267;BME280;61495;53.400;7.608;2023-12-20T07:58:44;100681.56;;;5.92;100.00
73267;BME280;61495;53.400;7.608;2023-12-20T08:01:11;100670.75;;;5.94;100.00
73267;BME280;61495;53.400;7.608;2023-12-20T08:03:36;100679.53;;;5.94;100.00
73267;BME280;61495;53.400;7.608;2023-12-20T08:06:02;100686.53;;;5.95;100.00
73267;BME280;61495;53.400;7.608;2023-12-20T08:08:27;100685.31;;;5.98;100.00
73267;BME280;61495;53.400;7.608;2023-12-20T08:10:53;100680.00;;;5.98;100.00
73267;BME280;61495;53.400;7.608;2023-12-20T08:13:18;100682.50;;;5.99;100.00
73267;BME280;61495;53.400;7.608;2023-12-20T08:15:44;100659.22;;;6.01;100.00
73267;BME280;61495;53.400;7.608;2023-12-20T08:18:09;100673.97;;;6.04;100.00
73267;BME280;61495;53.400;7.608;2023-12-20T08:20:34;100665.81;;;6.05;100.00
73267;BME280;61495;53.400;7.608;2023-12-20T08:23:00;100683.41;;;6.06;100.00
73267;BME280;61495;53.400;7.608;2023-12-20T08:25:25;100727.63;;;6.07;100.00
73267;BME280;61495;53.400;7.608;2023-12-20T08:27:51;100744.94;;;6.03;100.00
73267;BME280;61495;53.400;7.608;2023-12-20T08:30:16;100747.38;;;5.90;100.00
73267;BME280;61495;53.400;7.608;2023-12-20T08:32:50;100725.13;;;5.83;100.00
73267;BME280;61495;53.400;7.608;2023-12-20T08:35:15;100746.09;;;5.86;100.00
73267;BME280;61495;53.400;7.608;2023-12-20T08:37:41;100730.28;;;5.85;100.00
73267;BME280;61495;53.400;7.608;2023-12-20T08:40:06;100737.78;;;5.81;100.00
73267;BME280;61495;53.400;7.608;2023-12-20T08:42:32;100732.47;;;5.81;100.00
73267;BME280;61495;53.400;7.608;2023-12-20T08:44:58;100752.44;;;5.77;100.00
73267;BME280;61495;53.400;7.608;2023-12-20T08:47:26;100767.56;;;5.77;100.00
73267;BME280;61495;53.400;7.608;2023-12-20T08:49:52;100771.41;;;5.74;100.00
73267;BME280;61495;53.400;7.608;2023-12-20T08:52:22;100772.38;;;5.73;100.00
73267;BME280;61495;53.400;7.608;2023-12-20T08:54:47;100778.72;;;5.72;100.00
73267;BME280;61495;53.400;7.608;2023-12-20T08:57:13;100765.78;;;5.69;100.00
73267;BME280;61495;53.400;7.608;2023-12-20T08:59:39;100761.47;;;5.68;100.00
73267;BME280;61495;53.400;7.608;2023-12-20T09:02:04;100749.38;;;5.66;100.00
73267;BME280;61495;53.400;7.608;2023-12-20T09:04:29;100760.84;;;5.66;100.00
73267;BME280;61495;53.400;7.608;2023-12-20T09:06:55;100755.50;;;5.66;100.00
73267;BME280;61495;53.400;7.608;2023-12-20T09:09:20;100748.72;;;5.64;100.00
73267;BME280;61495;53.400;7.608;2023-12-20T09:11:46;100743.56;;;5.62;100.00
73267;BME280;61495;53.400;7.608;2023-12-20T09:14:13;100751.75;;;5.60;100.00
73267;BME280;61495;53.400;7.608;2023-12-20T09:16:38;100757.22;;;5.59;100.00
73267;BME280;61495;53.400;7.608;2023-12-20T09:19:04;100764.72;;;5.55;100.00
73267;BME280;61495;53.400;7.608;2023-12-20T09:21:29;100762.88;;;5.56;100.00
73267;BME280;61495;53.400;7.608;2023-12-20T09:23:54;100734.84;;;5.53;100.00
73267;BME280;61495;53.400;7.608;2023-12-20T09:26:20;100736.66;;;5.53;100.00
73267;BME280;61495;53.400;7.608;2023-12-20T09:28:46;100738.50;;;5.52;100.00
73267;BME280;61495;53.400;7.608;2023-12-20T09:31:11;100726.22;;;5.51;100.00
73267;BME280;61495;53.400;7.608;2023-12-20T09:33:36;100736.03;;;5.51;100.00
73267;BME280;61495;53.400;7.608;2023-12-20T09:36:02;100751.97;;;5.51;100.00
73267;BME280;61495;53.400;7.608;2023-12-20T09:38:27;100763.22;;;5.53;100.00
73267;BME280;61495;53.400;7.608;2023-12-20T09:40:53;100768.53;;;5.53;100.00
73267;BME280;61495;53.400;7.608;2023-12-20T09:43:20;100780.34;;;5.50;100.00
73267;BME280;61495;53.400;7.608;2023-12-20T09:45:47;100780.19;;;5.52;100.00
73267;BME280;61495;53.400;7.608;2023-12-20T09:48:13;100780.19;;;5.52;100.00
73267;BME280;61495;53.400;7.608;2023-12-20T09:50:43;100780.19;;;5.52;100.00
73267;BME280;61495;53.400;7.608;2023-12-20T09:53:12;100784.31;;;5.54;100.00
73267;BME280;61495;53.400;7.608;2023-12-20T09:55:41;100785.16;;;5.55;100.00
73267;BME280;61495;53.400;7.608;2023-12-20T09:58:06;100781.47;;;5.56;100.00
73267;BME280;61495;53.400;7.608;2023-12-20T10:00:34;100793.13;;;5.55;100.00
73267;BME280;61495;53.400;7.608;2023-12-20T10:03:00;100792.09;;;5.56;100.00
73267;BME280;61495;53.400;7.608;2023-12-20T10:05:27;100804.41;;;5.57;100.00
73267;BME280;61495;53.400;7.608;2023-12-20T10:07:53;100801.56;;;5.58;100.00
73267;BME280;61495;53.400;7.608;2023-12-20T10:10:18;100802.38;;;5.59;100.00
73267;BME280;61495;53.400;7.608;2023-12-20T10:15:35;100807.63;;;5.75;100.00
73267;BME280;61495;53.400;7.608;2023-12-20T10:18:01;100797.91;;;5.82;100.00
73267;BME280;61495;53.400;7.608;2023-12-20T10:20:27;100794.78;;;5.87;100.00
73267;BME280;61495;53.400;7.608;2023-12-20T10:22:54;100796.06;;;5.91;100.00
73267;BME280;61495;53.400;7.608;2023-12-20T10:25:23;100790.50;;;6.00;100.00
73267;BME280;61495;53.400;7.608;2023-12-20T10:27:50;100787.47;;;6.03;100.00
73267;BME280;61495;53.400;7.608;2023-12-20T10:30:16;100784.41;;;6.14;100.00
73267;BME280;61495;53.400;7.608;2023-12-20T10:32:41;100785.34;;;6.22;100.00
73267;BME280;61495;53.400;7.608;2023-12-20T10:35:07;100780.28;;;6.27;100.00
73267;BME280;61495;53.400;7.608;2023-12-20T10:37:41;100772.88;;;6.37;100.00
73267;BME280;61495;53.400;7.608;2023-12-20T10:40:07;100777.13;;;6.46;100.00
73267;BME280;61495;53.400;7.608;2023-12-20T10:42:33;100777.41;;;6.51;100.00
73267;BME280;61495;53.400;7.608;2023-12-20T10:45:01;100777.59;;;6.64;100.00
73267;BME280;61495;53.400;7.608;2023-12-20T10:47:28;100776.88;;;6.70;100.00
73267;BME280;61495;53.400;7.608;2023-12-20T10:49:55;100771.66;;;6.77;100.00
73267;BME280;61495;53.400;7.608;2023-12-20T10:52:23;100779.34;;;6.86;100.00
73267;BME280;61495;53.400;7.608;2023-12-20T10:54:48;100778.44;;;6.94;100.00
73267;BME280;61495;53.400;7.608;2023-12-20T10:57:16;100772.16;;;7.01;100.00
73267;BME280;61495;53.400;7.608;2023-12-20T10:59:44;100747.47;;;7.07;100.00
73267;BME280;61495;53.400;7.608;2023-12-20T11:02:12;100754.31;;;7.16;100.00
73267;BME280;61495;53.400;7.608;2023-12-20T11:04:52;100750.91;;;7.22;100.00
73267;BME280;61495;53.400;7.608;2023-12-20T11:10:18;100741.56;;;7.26;100.00
73267;BME280;61495;53.400;7.608;2023-12-20T11:12:53;100746.13;;;7.33;100.00
73267;BME280;61495;53.400;7.608;2023-12-20T11:15:20;100735.72;;;7.38;100.00
73267;BME280;61495;53.400;7.608;2023-12-20T11:17:46;100734.78;;;7.45;100.00
73267;BME280;61495;53.400;7.608;2023-12-20T11:20:12;100740.38;;;7.50;100.00
73267;BME280;61495;53.400;7.608;2023-12-20T11:22:38;100755.59;;;7.56;100.00
73267;BME280;61495;53.400;7.608;2023-12-20T11:25:10;100740.13;;;7.45;100.00
73267;BME280;61495;53.400;7.608;2023-12-20T11:27:37;100748.91;;;7.46;100.00
73267;BME280;61495;53.400;7.608;2023-12-20T11:30:05;100754.91;;;7.48;100.00
73267;BME280;61495;53.400;7.608;2023-12-20T11:32:36;100752.63;;;7.45;100.00
73267;BME280;61495;53.400;7.608;2023-12-20T11:37:35;100747.75;;;7.34;100.00
73267;BME280;61495;53.400;7.608;2023-12-20T11:40:05;100748.13;;;7.31;100.00
73267;BME280;61495;53.400;7.608;2023-12-20T11:42:51;100747.25;;;7.23;100.00
73267;BME280;61495;53.400;7.608;2023-12-20T11:45:24;100745.34;;;7.17;100.00
73267;BME280;61495;53.400;7.608;2023-12-20T11:47:50;100733.13;;;7.08;100.00
73267;BME280;61495;53.400;7.608;2023-12-20T11:50:20;100739.22;;;7.02;100.00
73267;BME280;61495;53.400;7.608;2023-12-20T11:52:47;100741.97;;;6.94;100.00
73267;BME280;61495;53.400;7.608;2023-12-20T11:55:13;100738.03;;;6.90;100.00
73267;BME280;61495;53.400;7.608;2023-12-20T11:57:38;100740.44;;;6.85;100.00
73267;BME280;61495;53.400;7.608;2023-12-20T12:00:04;100741.78;;;6.81;100.00
73267;BME280;61495;53.400;7.608;2023-12-20T12:02:31;100736.84;;;6.78;100.00
73267;BME280;61495;53.400;7.608;2023-12-20T12:04:57;100741.34;;;6.78;100.00
73267;BME280;61495;53.400;7.608;2023-12-20T12:07:24;100742.38;;;6.77;100.00
73267;BME280;61495;53.400;7.608;2023-12-20T12:09:49;100739.88;;;6.75;100.00
73267;BME280;61495;53.400;7.608;2023-12-20T12:12:15;100748.84;;;6.74;100.00
73267;BME280;61495;53.400;7.608;2023-12-20T12:14:40;100745.81;;;6.77;100.00
73267;BME280;61495;53.400;7.608;2023-12-20T12:17:15;100746.50;;;6.79;100.00
73267;BME280;61495;53.400;7.608;2023-12-20T12:19:43;100752.81;;;6.78;100.00
73267;BME280;61495;53.400;7.608;2023-12-20T12:22:15;100731.50;;;6.78;100.00
73267;BME280;61495;53.400;7.608;2023-12-20T12:24:43;100736.47;;;6.81;100.00
73267;BME280;61495;53.400;7.608;2023-12-20T12:27:09;100724.81;;;6.82;100.00
73267;BME280;61495;53.400;7.608;2023-12-20T12:29:35;100722.16;;;6.82;100.00
73267;BME280;61495;53.400;7.608;2023-12-20T12:32:04;100721.13;;;6.83;100.00
73267;BME280;61495;53.400;7.608;2023-12-20T12:34:30;100718.28;;;6.85;100.00
73267;BME280;61495;53.400;7.608;2023-12-20T12:36:57;100716.84;;;6.82;100.00
73267;BME280;61495;53.400;7.608;2023-12-20T12:39:24;100728.94;;;6.85;100.00
73267;BME280;61495;53.400;7.608;2023-12-20T12:41:50;100721.13;;;6.83;100.00
73267;BME280;61495;53.400;7.608;2023-12-20T12:44:16;100723.78;;;6.83;100.00
73267;BME280;61495;53.400;7.608;2023-12-20T12:46:43;100713.13;;;6.83;100.00
73267;BME280;61495;53.400;7.608;2023-12-20T12:49:08;100707.81;;;6.83;100.00
73267;BME280;61495;53.400;7.608;2023-12-20T12:51:34;100712.50;;;6.81;100.00
73267;BME280;61495;53.400;7.608;2023-12-20T12:53:59;100710.69;;;6.82;100.00